Time;durP1;ratioP1;P1;durP2;ratioP2;P2;SDS_P1;SDS_P2;PMS_P1;PMS_P2;Temp;Humidity;BMP_temperature;BMP_pressure;BME280_temperature;BME280_humidity;BME280_pressure;Samples;Min_cycle;Max_cycle;Signal;HPM_P1;HPM_P2
2022/08/28 00:00:15;;;;;;;12.23;3.90;;;;;;;;;;5062264;28;20230;-74
2022/08/28 00:02:40;;;;;;;13.70;3.70;;;;;;;;;;5064081;28;20291;-73
2022/08/28 00:05:11;;;;;;;11.50;3.67;;;;;;;;;;5043437;28;20264;-74
2022/08/28 00:07:36;;;;;;;15.73;4.07;;;;;;;;;;5061103;28;20222;-74
2022/08/28 00:10:07;;;;;;;9.40;3.75;;;;;;;;;;5075861;28;20233;-74
2022/08/28 00:12:33;;;;;;;7.85;3.50;;;;;;;;;;5034849;28;20280;-73
2022/08/28 00:15:03;;;;;;;11.75;3.65;;;;;;;;;;5039733;28;20223;-73
2022/08/28 00:17:34;;;;;;;12.67;3.73;;;;;;;;;;5061429;28;20223;-74
2022/08/28 00:19:59;;;;;;;12.07;3.80;;;;;;;;;;5038836;28;20407;-74
2022/08/28 00:22:25;;;;;;;15.27;3.67;;;;;;;;;;5055739;28;20759;-74
2022/08/28 00:24:50;;;;;;;9.33;4.57;;;;;;;;;;5041147;28;20231;-74
2022/08/28 00:30:02;;;;;;;9.32;4.22;;;;;;;;;;5049398;28;20238;-74
2022/08/28 00:32:28;;;;;;;15.65;3.90;;;;;;;;;;5055188;28;20684;-74
2022/08/28 00:34:56;;;;;;;10.20;4.20;;;;;;;;;;5042992;28;20234;-74
2022/08/28 00:37:24;;;;;;;11.07;4.23;;;;;;;;;;5041939;28;20214;-74
2022/08/28 00:39:49;;;;;;;10.27;3.92;;;;;;;;;;5058197;28;20247;-74
2022/08/28 00:42:17;;;;;;;8.88;3.80;;;;;;;;;;5061919;28;20225;-74
2022/08/28 00:44:47;;;;;;;14.07;3.80;;;;;;;;;;5046572;28;20219;-72
2022/08/28 00:47:18;;;;;;;11.50;3.87;;;;;;;;;;5047794;28;20301;-72
2022/08/28 00:49:50;;;;;;;12.40;4.30;;;;;;;;;;5077120;28;20213;-72
2022/08/28 00:52:20;;;;;;;9.85;3.72;;;;;;;;;;5057213;28;20213;-75
2022/08/28 00:55:06;;;;;;;11.82;4.18;;;;;;;;;;5067647;28;20790;-75
2022/08/28 00:57:39;;;;;;;12.70;3.78;;;;;;;;;;5069994;28;20219;-74
2022/08/28 01:00:10;;;;;;;8.05;3.85;;;;;;;;;;5031642;28;20223;-72
2022/08/28 01:02:40;;;;;;;12.13;4.38;;;;;;;;;;5015302;28;20221;-74
2022/08/28 01:05:08;;;;;;;10.52;4.20;;;;;;;;;;5078848;28;20230;-75
2022/08/28 01:07:37;;;;;;;9.55;3.90;;;;;;;;;;5058301;28;20218;-72
2022/08/28 01:10:06;;;;;;;9.13;3.80;;;;;;;;;;5053578;28;20281;-75
2022/08/28 01:12:34;;;;;;;13.20;4.07;;;;;;;;;;5056001;28;20219;-75
2022/08/28 01:15:09;;;;;;;11.25;3.92;;;;;;;;;;5040146;28;20417;-74
2022/08/28 01:17:35;;;;;;;9.38;3.80;;;;;;;;;;5059817;28;20699;-75
2022/08/28 01:20:08;;;;;;;9.98;3.70;;;;;;;;;;5064359;28;20264;-73
2022/08/28 01:22:39;;;;;;;11.93;3.67;;;;;;;;;;5047537;28;20701;-75
2022/08/28 01:25:14;;;;;;;9.77;3.95;;;;;;;;;;5051282;28;20226;-75
2022/08/28 01:27:40;;;;;;;10.82;3.70;;;;;;;;;;5068101;28;20276;-72
2022/08/28 01:30:14;;;;;;;10.65;4.40;;;;;;;;;;5049660;28;20221;-74
2022/08/28 01:32:46;;;;;;;6.97;3.50;;;;;;;;;;5043356;28;20275;-74
2022/08/28 01:35:15;;;;;;;9.27;4.22;;;;;;;;;;5081996;28;20222;-74
2022/08/28 01:37:41;;;;;;;10.20;3.50;;;;;;;;;;5061314;28;20242;-73
2022/08/28 01:40:10;;;;;;;7.60;3.80;;;;;;;;;;5046728;28;20218;-73
2022/08/28 01:42:44;;;;;;;14.50;4.00;;;;;;;;;;5048274;28;20253;-73
2022/08/28 01:45:13;;;;;;;12.63;3.90;;;;;;;;;;5067390;28;20222;-74
2022/08/28 01:47:40;;;;;;;9.77;3.87;;;;;;;;;;5071744;28;20579;-74
2022/08/28 01:50:06;;;;;;;10.17;3.80;;;;;;;;;;5044486;28;20227;-74
2022/08/28 01:52:35;;;;;;;15.00;4.30;;;;;;;;;;5048074;28;20664;-72
2022/08/28 01:55:03;;;;;;;12.40;4.13;;;;;;;;;;5062107;28;20233;-74
2022/08/28 01:57:29;;;;;;;11.48;3.80;;;;;;;;;;5046046;28;20227;-75
2022/08/28 01:59:59;;;;;;;10.13;3.95;;;;;;;;;;5066850;28;20218;-74
2022/08/28 02:02:27;;;;;;;9.73;3.70;;;;;;;;;;5047793;28;20717;-75
2022/08/28 02:04:55;;;;;;;8.07;4.15;;;;;;;;;;5060976;28;20231;-74
2022/08/28 02:07:23;;;;;;;7.53;3.80;;;;;;;;;;5075887;28;20231;-74
2022/08/28 02:09:48;;;;;;;7.93;4.20;;;;;;;;;;5082822;28;20602;-74
2022/08/28 02:12:17;;;;;;;11.00;3.60;;;;;;;;;;5085536;28;20241;-74
2022/08/28 02:14:42;;;;;;;12.85;4.20;;;;;;;;;;5080378;28;20257;-74
2022/08/28 02:17:08;;;;;;;5.93;3.92;;;;;;;;;;5066935;28;20226;-74
2022/08/28 02:19:35;;;;;;;7.30;4.03;;;;;;;;;;5080538;28;20271;-75
2022/08/28 02:22:07;;;;;;;9.10;3.40;;;;;;;;;;5078178;28;20210;-74
2022/08/28 02:24:33;;;;;;;7.72;4.10;;;;;;;;;;5078763;28;20494;-74
2022/08/28 02:27:03;;;;;;;12.93;4.00;;;;;;;;;;5062941;28;20226;-74
2022/08/28 02:29:33;;;;;;;12.02;3.75;;;;;;;;;;5053036;28;20769;-74
2022/08/28 02:31:59;;;;;;;7.22;3.53;;;;;;;;;;5073580;28;20229;-75
2022/08/28 02:34:24;;;;;;;9.27;3.83;;;;;;;;;;5044574;28;20234;-75
2022/08/28 02:36:55;;;;;;;9.33;3.80;;;;;;;;;;5053745;28;20701;-74
2022/08/28 02:39:20;;;;;;;10.50;3.70;;;;;;;;;;5054265;28;20219;-74
2022/08/28 02:41:48;;;;;;;8.33;3.23;;;;;;;;;;5064967;28;20598;-74
2022/08/28 02:44:20;;;;;;;6.63;3.43;;;;;;;;;;5044551;28;20644;-74
2022/08/28 02:46:48;;;;;;;9.73;4.05;;;;;;;;;;5076813;28;20238;-74
2022/08/28 02:49:14;;;;;;;9.50;3.70;;;;;;;;;;5041247;28;20711;-75
2022/08/28 02:51:39;;;;;;;7.43;3.43;;;;;;;;;;5049278;28;20261;-74
2022/08/28 02:54:05;;;;;;;12.40;3.43;;;;;;;;;;5094613;28;20222;-75
2022/08/28 02:56:31;;;;;;;11.02;3.45;;;;;;;;;;5052380;28;20226;-74
2022/08/28 02:58:58;;;;;;;7.00;3.50;;;;;;;;;;5055037;28;20230;-74
2022/08/28 03:01:24;;;;;;;10.40;3.70;;;;;;;;;;5039863;28;20655;-73
2022/08/28 03:03:51;;;;;;;9.60;3.73;;;;;;;;;;5070043;28;20259;-74
2022/08/28 03:06:21;;;;;;;10.57;3.90;;;;;;;;;;5039386;28;20287;-74
2022/08/28 03:08:47;;;;;;;9.57;3.50;;;;;;;;;;5044150;28;20251;-74
2022/08/28 03:11:15;;;;;;;11.30;3.60;;;;;;;;;;5079161;28;20221;-74
2022/08/28 03:13:41;;;;;;;9.50;3.73;;;;;;;;;;5045210;28;20299;-74
2022/08/28 03:16:11;;;;;;;12.00;4.23;;;;;;;;;;5075968;28;20224;-74
2022/08/28 03:18:40;;;;;;;4.93;2.83;;;;;;;;;;5067230;28;20892;-74
2022/08/28 03:21:06;;;;;;;6.37;2.80;;;;;;;;;;5052477;28;20222;-74
2022/08/28 03:23:31;;;;;;;3.97;2.38;;;;;;;;;;5056209;28;20235;-74
2022/08/28 03:26:01;;;;;;;5.33;3.07;;;;;;;;;;5045523;28;20287;-74
2022/08/28 03:28:32;;;;;;;6.73;3.27;;;;;;;;;;5064771;28;20326;-74
2022/08/28 03:30:57;;;;;;;5.63;3.37;;;;;;;;;;5056536;28;20270;-74
2022/08/28 03:33:23;;;;;;;7.10;3.00;;;;;;;;;;5056186;28;20247;-74
2022/08/28 03:35:51;;;;;;;6.17;2.73;;;;;;;;;;5043344;28;20227;-74
2022/08/28 03:38:18;;;;;;;6.60;2.97;;;;;;;;;;5060138;28;20230;-74
2022/08/28 03:40:51;;;;;;;3.90;2.77;;;;;;;;;;5068804;28;20267;-73
2022/08/28 03:43:20;;;;;;;5.20;3.13;;;;;;;;;;5034579;28;20230;-74
2022/08/28 03:46:03;;;;;;;6.53;3.00;;;;;;;;;;5053038;28;20234;-75
2022/08/28 03:48:34;;;;;;;4.97;3.13;;;;;;;;;;5046448;28;20233;-74
2022/08/28 03:51:02;;;;;;;5.40;3.13;;;;;;;;;;5056039;28;20325;-74
2022/08/28 03:53:31;;;;;;;6.63;2.13;;;;;;;;;;5064504;28;20272;-74
2022/08/28 03:55:59;;;;;;;5.10;2.80;;;;;;;;;;5056001;28;21018;-74
2022/08/28 03:58:28;;;;;;;7.87;2.70;;;;;;;;;;5038934;28;20314;-74
2022/08/28 04:00:54;;;;;;;3.30;2.10;;;;;;;;;;5059274;28;20234;-72
2022/08/28 04:03:24;;;;;;;4.10;2.13;;;;;;;;;;5057119;28;20231;-73
2022/08/28 04:05:50;;;;;;;5.23;3.00;;;;;;;;;;5063393;28;20238;-73
2022/08/28 04:08:21;;;;;;;5.37;2.73;;;;;;;;;;5055452;28;20575;-72
2022/08/28 04:10:47;;;;;;;4.73;2.63;;;;;;;;;;5063978;28;20221;-74
2022/08/28 04:13:13;;;;;;;8.07;2.83;;;;;;;;;;5076213;28;20235;-74
2022/08/28 04:15:41;;;;;;;3.90;2.50;;;;;;;;;;5061131;28;20260;-72
2022/08/28 04:18:08;;;;;;;7.37;3.30;;;;;;;;;;5062303;28;20298;-73
2022/08/28 04:20:33;;;;;;;10.47;3.30;;;;;;;;;;5081288;28;20279;-74
2022/08/28 04:23:04;;;;;;;5.07;2.73;;;;;;;;;;5081217;28;20225;-74
2022/08/28 04:25:30;;;;;;;4.50;2.63;;;;;;;;;;5055291;28;20316;-74
2022/08/28 04:27:56;;;;;;;6.40;3.23;;;;;;;;;;5038948;28;20226;-74
2022/08/28 04:30:22;;;;;;;8.27;2.80;;;;;;;;;;5064719;28;20277;-74
2022/08/28 04:32:47;;;;;;;11.60;4.10;;;;;;;;;;5065354;28;20241;-73
2022/08/28 04:35:15;;;;;;;13.47;4.00;;;;;;;;;;5055269;28;20738;-74
2022/08/28 04:37:43;;;;;;;4.30;2.43;;;;;;;;;;5043505;28;20226;-73
2022/08/28 04:40:11;;;;;;;9.57;2.70;;;;;;;;;;5043543;28;20817;-74
2022/08/28 04:42:40;;;;;;;7.43;3.80;;;;;;;;;;5057682;28;20226;-74
2022/08/28 04:45:06;;;;;;;3.57;2.80;;;;;;;;;;5032710;28;20218;-73
2022/08/28 04:47:37;;;;;;;8.60;2.60;;;;;;;;;;5061109;28;20605;-73
2022/08/28 04:50:03;;;;;;;9.65;3.55;;;;;;;;;;5060022;28;20231;-73
2022/08/28 04:52:29;;;;;;;8.13;3.50;;;;;;;;;;5045076;28;20246;-73
2022/08/28 04:54:54;;;;;;;6.93;3.33;;;;;;;;;;5080097;28;20230;-74
2022/08/28 04:57:20;;;;;;;11.63;3.47;;;;;;;;;;5074258;28;20824;-73
2022/08/28 04:59:48;;;;;;;10.23;3.73;;;;;;;;;;5053017;28;20234;-74
2022/08/28 05:02:16;;;;;;;6.90;3.33;;;;;;;;;;5054634;28;20218;-73
2022/08/28 05:04:43;;;;;;;10.93;3.87;;;;;;;;;;5056616;28;20781;-74
2022/08/28 05:07:09;;;;;;;8.57;3.50;;;;;;;;;;5063148;28;20620;-74
2022/08/28 05:09:36;;;;;;;8.18;3.55;;;;;;;;;;5064040;28;20218;-74
2022/08/28 05:12:03;;;;;;;9.10;3.67;;;;;;;;;;5056211;28;20215;-73
2022/08/28 05:14:29;;;;;;;8.85;3.83;;;;;;;;;;5035081;28;20243;-73
2022/08/28 05:16:57;;;;;;;8.53;3.70;;;;;;;;;;5038220;28;20215;-73
2022/08/28 05:19:23;;;;;;;10.30;3.20;;;;;;;;;;5073331;28;20600;-74
2022/08/28 05:21:51;;;;;;;9.03;3.47;;;;;;;;;;5048765;28;20208;-73
2022/08/28 05:24:20;;;;;;;9.20;3.40;;;;;;;;;;5052547;28;20309;-73
2022/08/28 05:26:51;;;;;;;9.98;3.13;;;;;;;;;;5056068;28;20257;-73
2022/08/28 05:29:16;;;;;;;10.02;3.40;;;;;;;;;;5058468;28;20652;-73
2022/08/28 05:31:42;;;;;;;10.05;3.45;;;;;;;;;;5047197;28;20222;-75
2022/08/28 05:34:09;;;;;;;7.60;3.35;;;;;;;;;;5053963;28;20284;-74
2022/08/28 05:36:39;;;;;;;9.07;3.15;;;;;;;;;;5076198;28;20241;-75
2022/08/28 05:39:06;;;;;;;9.13;3.35;;;;;;;;;;5058883;28;20631;-74
2022/08/28 05:41:34;;;;;;;6.72;3.10;;;;;;;;;;5059614;28;20226;-74
2022/08/28 05:44:10;;;;;;;6.60;2.60;;;;;;;;;;5046280;28;20233;-74
2022/08/28 05:46:39;;;;;;;11.65;3.10;;;;;;;;;;5066483;28;20233;-74
2022/08/28 05:49:07;;;;;;;8.90;2.85;;;;;;;;;;5059439;28;20223;-74
2022/08/28 05:51:34;;;;;;;8.65;3.10;;;;;;;;;;5057812;28;20229;-74
2022/08/28 05:53:59;;;;;;;9.35;3.30;;;;;;;;;;5074675;28;20279;-74
2022/08/28 05:56:28;;;;;;;7.63;3.03;;;;;;;;;;5056839;28;20230;-74
2022/08/28 05:58:54;;;;;;;5.35;2.72;;;;;;;;;;5040599;28;20707;-74
2022/08/28 06:01:22;;;;;;;6.25;3.08;;;;;;;;;;5074324;28;20298;-74
2022/08/28 06:03:56;;;;;;;9.30;2.85;;;;;;;;;;5042259;28;20258;-74
2022/08/28 06:06:23;;;;;;;10.70;3.30;;;;;;;;;;5065452;28;20245;-74
2022/08/28 06:08:50;;;;;;;7.75;2.63;;;;;;;;;;5069820;28;20238;-74
2022/08/28 06:11:21;;;;;;;9.60;3.20;;;;;;;;;;5066435;28;20257;-74
2022/08/28 06:13:46;;;;;;;13.55;3.25;;;;;;;;;;5068842;28;20242;-74
2022/08/28 06:16:12;;;;;;;9.15;3.17;;;;;;;;;;5040616;28;20242;-74
2022/08/28 06:18:40;;;;;;;4.97;3.08;;;;;;;;;;5045133;28;20368;-74
2022/08/28 06:21:11;;;;;;;9.45;2.95;;;;;;;;;;5019097;28;20280;-73
2022/08/28 06:23:37;;;;;;;8.38;2.90;;;;;;;;;;5061647;28;20309;-74
2022/08/28 06:26:03;;;;;;;10.60;2.90;;;;;;;;;;5065715;28;20904;-74
2022/08/28 06:28:31;;;;;;;8.23;2.83;;;;;;;;;;5064364;28;20219;-74
2022/08/28 06:30:59;;;;;;;5.10;2.58;;;;;;;;;;5036738;28;20234;-74
2022/08/28 06:33:29;;;;;;;9.20;3.00;;;;;;;;;;5075990;28;20240;-74
2022/08/28 06:35:55;;;;;;;7.40;2.83;;;;;;;;;;5080316;28;20317;-74
2022/08/28 06:38:22;;;;;;;11.80;3.15;;;;;;;;;;5064262;28;20301;-73
2022/08/28 06:40:51;;;;;;;8.88;2.72;;;;;;;;;;5082200;28;20802;-73
2022/08/28 06:43:25;;;;;;;8.57;3.05;;;;;;;;;;5065085;28;20599;-73
2022/08/28 06:45:54;;;;;;;5.75;2.28;;;;;;;;;;5065481;28;20231;-74
2022/08/28 06:48:23;;;;;;;8.32;3.00;;;;;;;;;;5080714;28;20222;-73
2022/08/28 06:50:51;;;;;;;7.50;2.60;;;;;;;;;;5062304;28;20214;-76
2022/08/28 06:53:17;;;;;;;7.25;2.50;;;;;;;;;;5077110;28;20229;-74
2022/08/28 06:55:45;;;;;;;8.32;2.50;;;;;;;;;;5061518;28;20226;-75
2022/08/28 06:58:11;;;;;;;8.02;2.50;;;;;;;;;;5050349;28;21643;-74
2022/08/28 07:00:40;;;;;;;6.35;2.67;;;;;;;;;;5041694;28;20238;-72
2022/08/28 07:03:06;;;;;;;7.40;2.63;;;;;;;;;;5038946;28;20760;-74
2022/08/28 07:05:37;;;;;;;7.13;2.92;;;;;;;;;;5026827;28;20237;-74
2022/08/28 07:08:04;;;;;;;7.00;2.50;;;;;;;;;;5060914;28;20223;-74
2022/08/28 07:10:30;;;;;;;8.10;2.65;;;;;;;;;;5054923;28;20239;-72
2022/08/28 07:12:56;;;;;;;8.55;2.95;;;;;;;;;;5056613;28;20234;-73
2022/08/28 07:15:21;;;;;;;6.82;2.60;;;;;;;;;;5057516;28;20219;-72
2022/08/28 07:17:47;;;;;;;7.10;2.50;;;;;;;;;;5037911;28;20225;-73
2022/08/28 07:20:15;;;;;;;5.80;2.50;;;;;;;;;;5037511;28;20235;-73
2022/08/28 07:22:46;;;;;;;6.93;2.47;;;;;;;;;;5081122;28;20781;-73
2022/08/28 07:25:11;;;;;;;6.95;2.90;;;;;;;;;;5062136;28;20228;-74
2022/08/28 07:27:37;;;;;;;7.57;2.47;;;;;;;;;;5065189;28;20222;-72
2022/08/28 07:30:04;;;;;;;6.72;2.83;;;;;;;;;;5063396;28;20230;-73
2022/08/28 07:32:32;;;;;;;5.88;2.35;;;;;;;;;;5063359;28;20223;-73
2022/08/28 07:35:00;;;;;;;8.27;2.60;;;;;;;;;;5068191;28;20257;-73
2022/08/28 07:37:28;;;;;;;13.43;2.75;;;;;;;;;;5077166;28;20233;-72
2022/08/28 07:39:56;;;;;;;10.75;2.50;;;;;;;;;;5051802;28;20245;-72
2022/08/28 07:45:06;;;;;;;10.27;2.50;;;;;;;;;;5055391;28;20766;-72
2022/08/28 07:47:32;;;;;;;6.75;2.75;;;;;;;;;;5078311;28;20226;-72
2022/08/28 07:49:59;;;;;;;3.58;2.03;;;;;;;;;;5062533;28;20715;-71
2022/08/28 07:52:26;;;;;;;6.40;2.22;;;;;;;;;;5083770;28;20214;-71
2022/08/28 07:54:55;;;;;;;8.23;2.33;;;;;;;;;;5042330;28;20240;-73
2022/08/28 07:58:05;;;;;;;4.80;2.38;;;;;;;;;;5078123;28;20630;-72
2022/08/28 08:00:56;;;;;;;7.68;2.40;;;;;;;;;;5075019;28;20272;-72
2022/08/28 08:03:22;;;;;;;9.52;2.53;;;;;;;;;;5091477;28;20257;-72
2022/08/28 08:05:58;;;;;;;5.85;2.33;;;;;;;;;;5080671;28;20238;-72
2022/08/28 08:08:26;;;;;;;6.55;2.60;;;;;;;;;;5064914;28;20213;-72
2022/08/28 08:11:00;;;;;;;6.68;2.78;;;;;;;;;;5064056;28;20221;-72
2022/08/28 08:13:26;;;;;;;6.53;2.47;;;;;;;;;;5041018;28;21030;-73
2022/08/28 08:15:59;;;;;;;5.28;2.35;;;;;;;;;;5062494;28;20229;-71
2022/08/28 08:18:25;;;;;;;5.82;2.33;;;;;;;;;;5035952;28;20233;-72
2022/08/28 08:20:50;;;;;;;6.63;2.47;;;;;;;;;;5066766;28;20221;-73
2022/08/28 08:23:16;;;;;;;6.25;2.42;;;;;;;;;;5026605;28;20218;-73
2022/08/28 08:25:53;;;;;;;5.32;2.60;;;;;;;;;;5046418;28;20272;-73
2022/08/28 08:28:19;;;;;;;6.70;2.58;;;;;;;;;;5048979;28;20267;-73
2022/08/28 08:30:45;;;;;;;5.57;2.40;;;;;;;;;;5060621;28;20280;-73
2022/08/28 08:33:12;;;;;;;7.90;2.28;;;;;;;;;;5058848;28;20730;-74
2022/08/28 08:35:40;;;;;;;6.65;2.53;;;;;;;;;;5045086;28;20292;-74
2022/08/28 08:38:06;;;;;;;7.00;2.60;;;;;;;;;;5089761;28;20225;-72
2022/08/28 08:40:37;;;;;;;7.53;2.65;;;;;;;;;;5042169;28;21153;-72
2022/08/28 08:43:05;;;;;;;4.75;2.10;;;;;;;;;;5056565;28;20223;-72
2022/08/28 08:45:30;;;;;;;5.38;2.45;;;;;;;;;;5069987;28;20301;-72
2022/08/28 08:47:58;;;;;;;8.38;2.50;;;;;;;;;;5038853;28;20357;-72
2022/08/28 08:50:32;;;;;;;6.88;2.22;;;;;;;;;;5040580;28;20219;-74
2022/08/28 08:53:12;;;;;;;9.15;2.80;;;;;;;;;;5038278;28;20296;-71
2022/08/28 08:55:57;;;;;;;4.82;2.42;;;;;;;;;;5032896;28;20216;-73
2022/08/28 08:58:32;;;;;;;5.97;2.60;;;;;;;;;;5037886;28;20314;-71
2022/08/28 09:01:15;;;;;;;5.85;2.25;;;;;;;;;;5053724;28;20223;-72
2022/08/28 09:03:49;;;;;;;9.20;2.53;;;;;;;;;;5061067;28;20235;-72
2022/08/28 09:06:26;;;;;;;5.05;2.42;;;;;;;;;;5077046;28;20235;-73
2022/08/28 09:08:55;;;;;;;4.60;2.28;;;;;;;;;;5029625;28;20219;-73
2022/08/28 09:11:51;;;;;;;4.32;2.40;;;;;;;;;;5033477;28;20585;-73
2022/08/28 09:14:43;;;;;;;5.32;2.33;;;;;;;;;;5075247;28;20218;-72
2022/08/28 09:17:08;;;;;;;2.83;1.85;;;;;;;;;;5068830;28;20610;-73
2022/08/28 09:19:34;;;;;;;5.43;2.20;;;;;;;;;;5051102;28;20295;-74
2022/08/28 09:22:00;;;;;;;5.32;2.20;;;;;;;;;;5051869;28;20799;-75
2022/08/28 09:24:31;;;;;;;6.43;2.35;;;;;;;;;;5028512;28;20230;-74
2022/08/28 09:27:02;;;;;;;4.63;2.30;;;;;;;;;;5057059;28;20229;-74
2022/08/28 09:29:39;;;;;;;7.90;2.47;;;;;;;;;;5019377;28;20235;-74
2022/08/28 09:32:25;;;;;;;5.55;2.35;;;;;;;;;;5056888;28;20342;-72
2022/08/28 09:35:00;;;;;;;4.25;2.35;;;;;;;;;;5066200;28;20223;-73
2022/08/28 09:37:26;;;;;;;5.25;2.17;;;;;;;;;;5068098;28;20222;-74
2022/08/28 09:40:23;;;;;;;6.15;2.33;;;;;;;;;;5034892;28;20691;-73
2022/08/28 09:46:03;;;;;;;8.65;2.65;;;;;;;;;;5054406;28;20229;-73
2022/08/28 09:48:31;;;;;;;4.72;2.30;;;;;;;;;;5033504;28;20227;-73
2022/08/28 09:51:04;;;;;;;4.22;1.83;;;;;;;;;;5058704;28;20233;-73
2022/08/28 09:53:32;;;;;;;5.05;1.83;;;;;;;;;;5059831;28;20792;-72
2022/08/28 09:56:06;;;;;;;5.13;2.00;;;;;;;;;;5059477;28;20793;-73
2022/08/28 09:58:50;;;;;;;7.15;2.25;;;;;;;;;;5051795;28;20225;-74
2022/08/28 10:01:40;;;;;;;5.22;2.03;;;;;;;;;;5032278;28;20225;-72
2022/08/28 10:04:27;;;;;;;6.90;2.10;;;;;;;;;;5078254;28;20231;-71
2022/08/28 10:06:52;;;;;;;4.43;2.00;;;;;;;;;;5085354;28;20782;-72
2022/08/28 10:09:55;;;;;;;5.72;2.15;;;;;;;;;;5059825;28;20227;-71
2022/08/28 10:12:21;;;;;;;3.78;1.85;;;;;;;;;;5063824;28;20218;-71
2022/08/28 10:15:29;;;;;;;5.13;1.90;;;;;;;;;;5069682;28;20214;-72
2022/08/28 10:18:11;;;;;;;3.90;2.25;;;;;;;;;;5061727;28;20588;-72
2022/08/28 10:20:52;;;;;;;4.03;1.92;;;;;;;;;;5065861;28;20233;-72
2022/08/28 10:23:27;;;;;;;3.92;1.70;;;;;;;;;;5055667;28;20612;-74
2022/08/28 10:25:56;;;;;;;4.55;1.98;;;;;;;;;;5075014;28;20231;-73
2022/08/28 10:28:54;;;;;;;6.57;2.13;;;;;;;;;;5061789;28;20226;-74
2022/08/28 10:31:38;;;;;;;7.55;2.50;;;;;;;;;;5064827;28;20233;-75
2022/08/28 10:34:30;;;;;;;5.18;2.20;;;;;;;;;;5059630;28;20656;-72
2022/08/28 10:37:20;;;;;;;8.95;2.10;;;;;;;;;;5047179;28;20215;-75
2022/08/28 10:39:54;;;;;;;5.53;2.17;;;;;;;;;;5066886;28;20229;-73
2022/08/28 10:42:31;;;;;;;4.03;2.20;;;;;;;;;;5041635;28;20218;-73
2022/08/28 10:45:04;;;;;;;4.38;1.77;;;;;;;;;;5064310;28;20226;-73
2022/08/28 10:47:33;;;;;;;4.30;2.22;;;;;;;;;;5068480;28;20230;-73
2022/08/28 10:50:01;;;;;;;4.72;2.03;;;;;;;;;;5021306;28;20218;-74
2022/08/28 10:52:29;;;;;;;3.22;1.83;;;;;;;;;;5028973;28;20219;-72
2022/08/28 10:55:00;;;;;;;4.70;2.00;;;;;;;;;;5081072;28;20234;-72
2022/08/28 10:57:25;;;;;;;4.47;1.90;;;;;;;;;;5019522;28;20357;-73
2022/08/28 10:59:52;;;;;;;3.20;1.63;;;;;;;;;;5091583;28;20895;-73
2022/08/28 11:02:18;;;;;;;7.50;2.25;;;;;;;;;;5051762;28;20687;-74
2022/08/28 11:04:46;;;;;;;4.57;2.10;;;;;;;;;;5061647;28;20715;-73
2022/08/28 11:07:25;;;;;;;4.85;1.92;;;;;;;;;;5058978;28;20223;-72
2022/08/28 11:09:50;;;;;;;6.15;1.83;;;;;;;;;;5052950;28;20222;-72
2022/08/28 11:12:18;;;;;;;4.90;2.08;;;;;;;;;;5043983;28;20215;-71
2022/08/28 11:14:48;;;;;;;4.03;1.80;;;;;;;;;;5078702;28;20318;-73
2022/08/28 11:17:29;;;;;;;5.25;1.80;;;;;;;;;;5040024;28;20219;-72
2022/08/28 11:20:00;;;;;;;3.95;1.95;;;;;;;;;;5081704;28;20695;-71
2022/08/28 11:22:58;;;;;;;4.18;1.75;;;;;;;;;;5077168;28;20613;-73
2022/08/28 11:25:45;;;;;;;3.88;1.80;;;;;;;;;;5079350;28;20757;-73
2022/08/28 11:28:39;;;;;;;3.10;1.80;;;;;;;;;;5067427;28;20532;-74
2022/08/28 11:31:04;;;;;;;3.28;1.45;;;;;;;;;;5081032;28;21063;-73
2022/08/28 11:33:42;;;;;;;4.40;1.70;;;;;;;;;;5076641;28;20234;-74
2022/08/28 11:36:26;;;;;;;3.60;1.90;;;;;;;;;;5066018;28;20221;-75
2022/08/28 11:39:19;;;;;;;4.13;1.80;;;;;;;;;;5085668;28;20286;-74
2022/08/28 11:42:10;;;;;;;5.65;2.00;;;;;;;;;;5065865;28;20242;-74
2022/08/28 11:44:43;;;;;;;4.57;1.80;;;;;;;;;;5080233;28;20721;-72
2022/08/28 11:47:35;;;;;;;2.88;1.70;;;;;;;;;;5041775;28;20222;-72
2022/08/28 11:50:12;;;;;;;3.58;1.50;;;;;;;;;;5054751;28;20697;-74
2022/08/28 11:52:44;;;;;;;3.80;1.65;;;;;;;;;;5078773;28;20320;-73
2022/08/28 11:55:16;;;;;;;2.92;1.70;;;;;;;;;;5058801;28;20716;-76
2022/08/28 11:58:20;;;;;;;2.60;1.60;;;;;;;;;;5088025;28;20306;-74
2022/08/28 12:00:55;;;;;;;3.92;1.70;;;;;;;;;;5034216;28;20280;-74
2022/08/28 12:03:20;;;;;;;4.95;1.90;;;;;;;;;;5061966;28;20229;-73
2022/08/28 12:05:52;;;;;;;5.03;2.00;;;;;;;;;;5067031;28;20228;-74
2022/08/28 12:08:43;;;;;;;3.65;1.75;;;;;;;;;;5031793;28;20222;-75
2022/08/28 12:11:10;;;;;;;3.50;2.28;;;;;;;;;;5070816;28;20230;-73
2022/08/28 12:13:46;;;;;;;5.88;2.20;;;;;;;;;;5026609;28;20223;-73
2022/08/28 12:16:11;;;;;;;4.30;2.13;;;;;;;;;;5056908;28;20297;-73
2022/08/28 12:18:37;;;;;;;3.25;1.90;;;;;;;;;;5048878;28;20308;-73
2022/08/28 12:21:04;;;;;;;6.82;2.20;;;;;;;;;;5043462;28;20227;-72
2022/08/28 12:23:35;;;;;;;4.57;1.92;;;;;;;;;;5030483;28;20753;-73
2022/08/28 12:26:03;;;;;;;6.03;2.03;;;;;;;;;;5071151;28;20337;-72
2022/08/28 12:28:51;;;;;;;5.60;2.20;;;;;;;;;;5062988;28;20704;-73
2022/08/28 12:34:33;;;;;;;4.68;2.05;;;;;;;;;;5067509;28;20222;-73
2022/08/28 12:36:59;;;;;;;5.55;2.20;;;;;;;;;;5061278;28;20225;-73
2022/08/28 12:39:25;;;;;;;4.47;2.20;;;;;;;;;;5042677;28;20226;-73
2022/08/28 12:41:55;;;;;;;5.90;1.90;;;;;;;;;;5044452;28;20241;-73
2022/08/28 12:44:27;;;;;;;5.13;2.00;;;;;;;;;;5043393;28;20654;-74
2022/08/28 12:46:53;;;;;;;5.13;1.90;;;;;;;;;;5057975;28;20354;-74
2022/08/28 12:49:35;;;;;;;3.95;2.33;;;;;;;;;;5041902;28;20337;-73
2022/08/28 12:52:21;;;;;;;3.42;2.13;;;;;;;;;;5040605;28;20231;-74
2022/08/28 12:54:48;;;;;;;6.07;2.40;;;;;;;;;;5054872;28;20337;-73
2022/08/28 12:57:19;;;;;;;3.60;2.10;;;;;;;;;;5057155;28;20218;-74
2022/08/28 12:59:47;;;;;;;5.18;1.88;;;;;;;;;;5047758;28;20226;-75
2022/08/28 13:02:25;;;;;;;3.03;1.92;;;;;;;;;;5044532;28;20225;-74
2022/08/28 13:05:02;;;;;;;5.40;2.13;;;;;;;;;;5054782;28;20229;-74
2022/08/28 13:07:38;;;;;;;3.22;2.20;;;;;;;;;;5063661;28;20231;-75
2022/08/28 13:10:20;;;;;;;4.53;2.05;;;;;;;;;;5049013;28;20244;-74
2022/08/28 13:12:54;;;;;;;3.20;2.42;;;;;;;;;;5066941;28;20226;-75
2022/08/28 13:15:50;;;;;;;4.15;2.15;;;;;;;;;;5037877;28;20226;-74
2022/08/28 13:18:37;;;;;;;5.72;2.40;;;;;;;;;;5082532;28;20222;-75
2022/08/28 13:21:18;;;;;;;5.60;2.45;;;;;;;;;;5055178;28;20276;-76
2022/08/28 13:24:22;;;;;;;6.60;3.17;;;;;;;;;;5060025;28;20257;-74
2022/08/28 13:27:11;;;;;;;4.43;3.08;;;;;;;;;;5046800;28;20773;-74
2022/08/28 13:29:38;;;;;;;4.07;2.78;;;;;;;;;;5080251;28;20301;-73
2022/08/28 13:32:08;;;;;;;4.25;2.92;;;;;;;;;;5090206;28;20265;-74
2022/08/28 13:34:35;;;;;;;5.30;2.72;;;;;;;;;;5020707;28;20239;-74
2022/08/28 13:37:05;;;;;;;3.10;2.60;;;;;;;;;;5039166;28;20303;-74
2022/08/28 13:39:34;;;;;;;4.47;2.60;;;;;;;;;;5044920;28;20313;-73
2022/08/28 13:42:07;;;;;;;4.28;2.60;;;;;;;;;;5033158;28;20286;-74
2022/08/28 13:44:49;;;;;;;4.50;2.85;;;;;;;;;;5056046;28;20337;-73
2022/08/28 13:47:17;;;;;;;5.60;3.15;;;;;;;;;;5073265;28;20226;-72
2022/08/28 13:49:43;;;;;;;4.35;3.10;;;;;;;;;;5027841;28;20237;-74
2022/08/28 13:52:11;;;;;;;5.25;2.83;;;;;;;;;;5055068;28;20295;-73
2022/08/28 13:54:40;;;;;;;5.35;2.75;;;;;;;;;;5053199;28;20234;-73
2022/08/28 13:57:06;;;;;;;5.45;2.90;;;;;;;;;;5037512;28;20232;-74
2022/08/28 13:59:34;;;;;;;5.80;3.20;;;;;;;;;;5046150;28;20230;-74
2022/08/28 14:04:45;;;;;;;4.20;3.05;;;;;;;;;;5060322;28;20231;-74
2022/08/28 14:07:16;;;;;;;5.47;2.75;;;;;;;;;;5036443;28;20227;-76
2022/08/28 14:09:44;;;;;;;6.55;3.20;;;;;;;;;;5058505;28;20227;-75
2022/08/28 14:12:09;;;;;;;5.75;3.00;;;;;;;;;;5049717;28;20234;-74
2022/08/28 14:14:38;;;;;;;4.53;2.90;;;;;;;;;;5047658;28;20704;-74
2022/08/28 14:17:06;;;;;;;5.20;2.80;;;;;;;;;;5051699;28;20700;-75
2022/08/28 14:19:32;;;;;;;4.82;3.00;;;;;;;;;;5026124;28;20223;-73
2022/08/28 14:21:58;;;;;;;4.43;3.20;;;;;;;;;;5058906;28;20313;-72
2022/08/28 14:24:23;;;;;;;4.07;2.92;;;;;;;;;;5043432;28;20238;-73
2022/08/28 14:26:49;;;;;;;5.43;2.92;;;;;;;;;;5071945;28;20234;-73
2022/08/28 14:29:15;;;;;;;6.15;3.38;;;;;;;;;;5052585;28;20641;-74
2022/08/28 14:31:44;;;;;;;6.43;2.95;;;;;;;;;;5039513;28;20243;-74
2022/08/28 14:34:23;;;;;;;5.05;3.13;;;;;;;;;;5029510;28;20232;-74
2022/08/28 14:36:53;;;;;;;6.95;3.45;;;;;;;;;;5055780;28;20231;-74
2022/08/28 14:39:25;;;;;;;4.75;3.00;;;;;;;;;;5064133;28;20227;-73
2022/08/28 14:41:52;;;;;;;3.80;2.90;;;;;;;;;;5055710;28;20750;-74
2022/08/28 14:44:20;;;;;;;5.95;3.05;;;;;;;;;;5039334;28;20241;-73
2022/08/28 14:46:51;;;;;;;6.88;2.90;;;;;;;;;;5044282;28;20234;-74
2022/08/28 14:49:20;;;;;;;5.00;3.40;;;;;;;;;;5034179;28;20985;-73
2022/08/28 14:51:48;;;;;;;6.13;2.90;;;;;;;;;;5065242;28;20248;-73
2022/08/28 14:54:15;;;;;;;4.50;3.20;;;;;;;;;;5056900;28;20281;-74
2022/08/28 14:56:43;;;;;;;4.97;3.40;;;;;;;;;;5059218;28;20227;-75
2022/08/28 14:59:11;;;;;;;4.25;3.33;;;;;;;;;;5080673;28;20211;-75
2022/08/28 15:01:38;;;;;;;4.82;3.20;;;;;;;;;;5061834;28;20717;-74
2022/08/28 15:04:08;;;;;;;4.80;3.53;;;;;;;;;;5065498;28;20256;-74
2022/08/28 15:06:41;;;;;;;8.30;3.90;;;;;;;;;;5068514;28;20233;-72
2022/08/28 15:09:10;;;;;;;8.02;4.28;;;;;;;;;;5061992;28;20230;-72
2022/08/28 15:11:36;;;;;;;4.53;4.07;;;;;;;;;;5063374;28;20234;-73
2022/08/28 15:14:05;;;;;;;5.07;4.22;;;;;;;;;;5061279;28;20222;-72
2022/08/28 15:16:32;;;;;;;6.25;4.47;;;;;;;;;;5069606;28;20218;-74